createdAt,value
2023-03-31T00:03:51.247Z,10.10
2023-03-31T00:08:54.823Z,10.10
2023-03-31T00:13:58.034Z,10.00
2023-03-31T00:19:02.491Z,10.00
2023-03-31T00:24:07.292Z,9.90
2023-03-31T00:29:13.403Z,9.80
2023-03-31T00:34:16.651Z,9.80
2023-03-31T00:39:20.467Z,9.80
2023-03-31T00:44:29.660Z,9.70
2023-03-31T00:49:41.048Z,9.80
2023-03-31T00:54:48.222Z,9.80
2023-03-31T00:59:56.509Z,9.80
2023-03-31T01:05:02.656Z,9.80
2023-03-31T01:10:07.771Z,9.90
2023-03-31T01:15:11.278Z,9.80
2023-03-31T01:20:58.588Z,9.80
2023-03-31T01:26:22.997Z,9.90
2023-03-31T01:32:01.779Z,9.90
2023-03-31T01:37:33.566Z,9.90
2023-03-31T01:42:59.881Z,9.90
2023-03-31T01:48:13.588Z,9.90
2023-03-31T01:53:35.596Z,9.90
2023-03-31T01:58:56.580Z,9.90
2023-03-31T02:04:08.068Z,9.80
2023-03-31T02:09:16.860Z,9.80
2023-03-31T02:14:25.118Z,9.80
2023-03-31T02:19:37.201Z,9.80
2023-03-31T02:24:42.561Z,9.70
2023-03-31T02:29:46.268Z,9.70
2023-03-31T02:34:49.970Z,9.60
2023-03-31T02:39:56.260Z,9.50
2023-03-31T02:45:04.793Z,9.40
2023-03-31T02:50:09.054Z,9.40
2023-03-31T02:55:19.131Z,9.20
2023-03-31T03:00:50.133Z,9.20
2023-03-31T03:06:05.240Z,9.10
2023-03-31T03:11:22.191Z,9.10
2023-03-31T03:16:33.319Z,9.10
2023-03-31T03:21:36.762Z,9.00
2023-03-31T03:26:40.762Z,8.90
2023-03-31T03:31:44.274Z,8.90
2023-03-31T03:36:47.870Z,8.80
2023-03-31T03:41:51.149Z,8.80
2023-03-31T03:46:54.912Z,8.70
2023-03-31T03:51:58.135Z,8.60
2023-03-31T03:57:01.431Z,8.70
2023-03-31T04:02:05.022Z,8.70
2023-03-31T04:07:08.482Z,8.70
2023-03-31T04:12:11.854Z,8.70
2023-03-31T04:17:16.275Z,8.70
2023-03-31T04:22:21.093Z,8.70
2023-03-31T04:27:27.642Z,8.80
2023-03-31T04:32:33.343Z,8.80
2023-03-31T04:37:39.373Z,8.70
2023-03-31T04:42:43.321Z,8.80
2023-03-31T04:47:46.581Z,8.80
2023-03-31T04:52:49.793Z,8.80
2023-03-31T04:57:53.232Z,8.80
2023-03-31T05:02:57.448Z,8.90
2023-03-31T05:08:00.911Z,8.90
2023-03-31T05:13:04.470Z,8.90
2023-03-31T05:18:08.568Z,9.00
2023-03-31T05:23:12.001Z,9.00
2023-03-31T05:28:15.534Z,9.20
2023-03-31T05:33:19.167Z,9.20
2023-03-31T05:38:23.061Z,9.30
2023-03-31T05:43:26.605Z,9.30
2023-03-31T05:48:29.812Z,9.40
2023-03-31T05:53:35.100Z,9.40
2023-03-31T05:58:39.189Z,9.50
2023-03-31T06:03:42.885Z,9.50
2023-03-31T06:08:47.717Z,9.60
2023-03-31T06:13:51.343Z,9.80
2023-03-31T06:18:56.199Z,9.90
2023-03-31T06:24:00.823Z,10.10
2023-03-31T06:29:04.337Z,10.20
2023-03-31T06:34:07.914Z,10.30
2023-03-31T06:39:11.492Z,10.30
2023-03-31T06:44:17.079Z,10.40
2023-03-31T06:49:20.354Z,10.50
2023-03-31T06:54:23.626Z,10.50
2023-03-31T06:59:27.147Z,10.60
2023-03-31T07:04:30.832Z,10.70
2023-03-31T07:09:34.108Z,10.80
2023-03-31T07:14:37.783Z,10.90
2023-03-31T07:19:42.577Z,11.00
2023-03-31T07:24:45.632Z,11.20
2023-03-31T07:29:48.801Z,11.30
2023-03-31T07:34:51.958Z,11.40
2023-03-31T07:39:55.262Z,11.50
2023-03-31T07:44:58.618Z,11.60
2023-03-31T07:50:02.363Z,11.70
2023-03-31T07:55:06.650Z,11.80
2023-03-31T08:00:12.861Z,11.80
2023-03-31T08:05:18.767Z,11.90
2023-03-31T08:10:25.625Z,12.10
2023-03-31T08:15:29.312Z,12.40
2023-03-31T08:20:33.362Z,12.50
2023-03-31T08:25:36.627Z,12.60
2023-03-31T08:30:40.235Z,12.50
2023-03-31T08:35:44.208Z,12.60
2023-03-31T08:40:47.509Z,12.90
2023-03-31T08:45:56.094Z,13.20
2023-03-31T08:51:13.094Z,13.50
2023-03-31T08:56:20.059Z,13.70
2023-03-31T09:02:13.746Z,13.90
2023-03-31T09:07:41.849Z,14.10
2023-03-31T09:13:16.278Z,14.00
2023-03-31T09:18:26.807Z,14.10
2023-03-31T09:23:39.942Z,14.00
2023-03-31T09:28:43.962Z,14.00
2023-03-31T09:33:48.618Z,14.10
2023-03-31T09:38:52.018Z,14.40
2023-03-31T09:43:55.241Z,14.60
2023-03-31T09:49:11.298Z,14.90
2023-03-31T09:54:25.834Z,15.00
2023-03-31T09:59:38.070Z,15.10
2023-03-31T10:04:47.006Z,15.30
2023-03-31T10:09:50.331Z,15.40
2023-03-31T10:15:02.455Z,15.60
2023-03-31T10:20:41.808Z,15.70
2023-03-31T10:25:47.875Z,15.60
2023-03-31T10:30:54.090Z,15.40
2023-03-31T10:36:00.758Z,15.20
2023-03-31T10:41:05.085Z,15.00
2023-03-31T10:46:13.909Z,15.00
2023-03-31T10:51:19.902Z,15.10
2023-03-31T10:56:46.526Z,15.30
2023-03-31T11:02:22.596Z,15.30
2023-03-31T11:07:35.139Z,15.40
2023-03-31T11:12:59.390Z,15.30
2023-03-31T11:18:17.820Z,15.40
2023-03-31T11:23:27.208Z,15.40
2023-03-31T11:28:58.848Z,15.50
2023-03-31T11:34:23.418Z,15.60
2023-03-31T11:39:37.433Z,15.70
2023-03-31T11:44:46.963Z,15.90
2023-03-31T11:49:59.579Z,15.90
2023-03-31T11:55:19.360Z,16.00
2023-03-31T12:00:28.640Z,16.20
2023-03-31T12:05:34.742Z,16.50
2023-03-31T12:10:44.314Z,16.80
2023-03-31T12:16:11.003Z,16.80
2023-03-31T12:21:15.017Z,16.80
2023-03-31T12:26:41.928Z,16.70
2023-03-31T12:31:46.863Z,17.00
2023-03-31T12:37:13.875Z,17.00
2023-03-31T12:42:20.432Z,16.90
2023-03-31T12:48:04.943Z,16.60
2023-03-31T12:53:20.038Z,16.50
2023-03-31T12:58:35.342Z,16.40
2023-03-31T13:03:47.630Z,16.50
2023-03-31T13:08:56.915Z,16.40
2023-03-31T13:14:06.244Z,16.30
2023-03-31T13:19:13.343Z,16.10
2023-03-31T13:24:16.949Z,16.00
2023-03-31T13:29:25.926Z,15.90
2023-03-31T13:34:45.498Z,15.90
2023-03-31T13:40:08.560Z,15.90
2023-03-31T13:45:46.218Z,15.90
2023-03-31T13:51:15.625Z,15.80
2023-03-31T13:56:41.134Z,15.90
2023-03-31T14:01:56.463Z,16.00
2023-03-31T14:07:07.992Z,16.30
2023-03-31T14:12:35.456Z,16.60
2023-03-31T14:17:41.593Z,16.80
2023-03-31T14:23:09.487Z,17.20
2023-03-31T14:28:35.788Z,17.30
2023-03-31T14:33:47.142Z,16.60
2023-03-31T14:38:50.391Z,16.20
2023-03-31T14:43:54.023Z,15.70
2023-03-31T14:48:58.099Z,15.50
2023-03-31T14:54:02.606Z,15.40
2023-03-31T14:59:08.622Z,15.30
2023-03-31T15:04:16.403Z,15.10
2023-03-31T15:09:24.510Z,14.90
2023-03-31T15:14:34.473Z,14.70
2023-03-31T15:19:37.865Z,14.50
2023-03-31T15:24:41.415Z,14.40
2023-03-31T15:29:48.344Z,14.40
2023-03-31T15:34:52.505Z,14.40
2023-03-31T15:40:01.002Z,14.20
2023-03-31T15:45:27.588Z,14.00
2023-03-31T15:50:32.541Z,13.80
2023-03-31T16:00:52.953Z,13.70
2023-03-31T16:06:03.649Z,13.70
2023-03-31T16:11:23.905Z,13.60
2023-03-31T16:16:28.948Z,13.50
2023-03-31T16:21:47.860Z,13.50
2023-03-31T16:26:51.669Z,13.60
2023-03-31T16:32:12.609Z,13.60
2023-03-31T16:37:16.322Z,13.70
2023-03-31T16:42:21.117Z,13.70
2023-03-31T16:47:35.263Z,13.70
2023-03-31T16:52:40.083Z,13.70
2023-03-31T16:57:44.266Z,13.70
2023-03-31T17:02:48.190Z,13.60
2023-03-31T17:07:51.854Z,13.50
2023-03-31T17:12:56.863Z,13.40
2023-03-31T17:18:04.701Z,13.30
2023-03-31T17:23:08.399Z,13.10
2023-03-31T17:28:16.504Z,13.10
2023-03-31T17:33:23.980Z,13.00
2023-03-31T17:38:32.256Z,13.00
2023-03-31T17:43:39.612Z,13.00
2023-03-31T17:48:45.760Z,13.00
2023-03-31T17:53:50.914Z,12.90
2023-03-31T17:58:54.583Z,12.70
2023-03-31T18:03:58.923Z,12.60
2023-03-31T18:09:04.003Z,12.50
2023-03-31T18:14:09.125Z,12.40
2023-03-31T18:19:14.715Z,12.30
2023-03-31T18:24:20.342Z,12.30
2023-03-31T18:29:24.516Z,12.20
2023-03-31T18:34:29.987Z,12.10
2023-03-31T18:39:36.995Z,12.10
2023-03-31T18:44:42.753Z,12.00
2023-03-31T18:49:49.121Z,11.80
2023-03-31T18:54:55.002Z,11.80
2023-03-31T18:59:59.918Z,11.70
2023-03-31T19:05:05.757Z,11.60
2023-03-31T19:10:11.536Z,11.60
2023-03-31T19:15:17.889Z,11.60
2023-03-31T19:20:23.369Z,11.60
2023-03-31T19:25:28.974Z,11.60
2023-03-31T19:30:34.372Z,11.60
2023-03-31T19:35:43.845Z,11.50
2023-03-31T19:40:49.283Z,11.50
2023-03-31T19:45:55.890Z,11.50
2023-03-31T19:51:08.272Z,11.50
2023-03-31T19:56:16.454Z,11.50
2023-03-31T20:01:28.369Z,11.50
2023-03-31T20:06:36.463Z,11.50
2023-03-31T20:11:46.226Z,11.50
2023-03-31T20:16:53.695Z,11.50
2023-03-31T20:21:59.058Z,11.50
2023-03-31T20:27:04.675Z,11.40
2023-03-31T20:32:09.453Z,11.20
2023-03-31T20:37:14.554Z,11.20
2023-03-31T20:42:19.897Z,11.10
2023-03-31T20:47:26.602Z,11.10
2023-03-31T20:52:30.850Z,11.10
2023-03-31T20:57:34.987Z,11.10
2023-03-31T21:02:39.237Z,11.10
2023-03-31T21:07:42.556Z,11.10
2023-03-31T21:12:46.713Z,11.10
2023-03-31T21:17:51.036Z,11.10
2023-03-31T21:22:57.878Z,10.90
2023-03-31T21:28:01.546Z,10.90
2023-03-31T21:33:05.528Z,10.80
2023-03-31T21:38:08.848Z,10.70
2023-03-31T21:43:13.107Z,10.70
2023-03-31T21:48:16.332Z,10.70
2023-03-31T21:53:19.343Z,10.70
2023-03-31T21:58:25.669Z,10.70
2023-03-31T22:03:29.352Z,10.60
2023-03-31T22:08:32.919Z,10.70
2023-03-31T22:13:37.218Z,10.60
2023-03-31T22:18:40.609Z,10.60
2023-03-31T22:23:44.087Z,10.60
2023-03-31T22:28:47.285Z,10.60
2023-03-31T22:33:50.884Z,10.60
2023-03-31T22:38:54.141Z,10.50
2023-03-31T22:43:57.332Z,10.50
2023-03-31T22:49:00.430Z,10.40
2023-03-31T22:54:03.989Z,10.30
2023-03-31T22:59:08.241Z,10.30
2023-03-31T23:04:11.496Z,10.20
2023-03-31T23:09:14.858Z,10.20
2023-03-31T23:14:18.393Z,10.30
2023-03-31T23:19:22.134Z,10.30
2023-03-31T23:24:25.835Z,10.30
2023-03-31T23:29:31.082Z,10.30
2023-03-31T23:34:34.254Z,10.30
2023-03-31T23:39:39.193Z,10.20
2023-03-31T23:44:42.430Z,10.20
2023-03-31T23:49:45.515Z,10.30
2023-03-31T23:54:48.724Z,10.30
2023-03-31T23:59:52.871Z,10.30
